createdAt,value
2023-07-24T00:00:00.554Z,7.75
2023-07-24T00:05:04.076Z,7.20
2023-07-24T00:10:08.204Z,7.15
2023-07-24T00:15:13.170Z,9.55
2023-07-24T00:20:20.857Z,9.32
2023-07-24T00:25:24.324Z,11.10
2023-07-24T00:30:29.154Z,7.28
2023-07-24T00:35:32.574Z,12.95
2023-07-24T00:40:36.040Z,10.10
2023-07-24T00:45:40.940Z,8.68
2023-07-24T00:50:45.327Z,6.82
2023-07-24T00:55:49.383Z,6.97
2023-07-24T01:00:54.313Z,8.68
2023-07-24T01:05:58.299Z,8.63
2023-07-24T01:11:07.607Z,7.50
2023-07-24T01:16:16.369Z,6.90
2023-07-24T01:21:29.076Z,8.57
2023-07-24T01:26:34.574Z,8.05
2023-07-24T01:31:38.114Z,11.43
2023-07-24T01:36:41.705Z,7.05
2023-07-24T01:41:46.751Z,7.47
2023-07-24T01:46:50.222Z,6.78
2023-07-24T01:51:53.628Z,8.75
2023-07-24T01:56:58.412Z,7.85
2023-07-24T02:02:01.796Z,7.70
2023-07-24T02:07:05.861Z,9.05
2023-07-24T02:12:10.689Z,8.25
2023-07-24T02:17:14.152Z,7.05
2023-07-24T02:22:17.721Z,8.35
2023-07-24T02:27:29.957Z,9.40
2023-07-24T02:32:34.967Z,7.55
2023-07-24T02:37:38.538Z,7.32
2023-07-24T02:42:43.276Z,6.55
2023-07-24T02:47:46.853Z,7.10
2023-07-24T02:52:51.183Z,9.27
2023-07-24T02:57:56.104Z,7.85
2023-07-24T03:02:59.585Z,8.40
2023-07-24T03:08:03.273Z,7.65
2023-07-24T03:13:09.069Z,7.28
2023-07-24T03:18:12.491Z,7.97
2023-07-24T03:23:16.582Z,7.68
2023-07-24T03:28:21.438Z,8.60
2023-07-24T03:33:24.889Z,9.05
2023-07-24T03:38:28.503Z,7.38
2023-07-24T03:43:33.219Z,9.48
2023-07-24T03:48:37.667Z,10.80
2023-07-24T03:53:41.041Z,7.82
2023-07-24T03:58:45.873Z,8.15
2023-07-24T04:03:49.353Z,10.15
2023-07-24T04:08:54.017Z,7.88
2023-07-24T04:13:58.806Z,8.07
2023-07-24T04:19:02.229Z,10.00
2023-07-24T04:24:06.057Z,10.98
2023-07-24T04:29:10.834Z,9.02
2023-07-24T04:34:14.247Z,10.10
2023-07-24T04:39:17.685Z,7.60
2023-07-24T04:44:22.486Z,9.55
2023-07-24T04:49:25.930Z,6.85
2023-07-24T04:54:30.457Z,8.98
2023-07-24T04:59:35.234Z,7.10
2023-07-24T05:04:38.711Z,8.80
2023-07-24T05:09:42.146Z,8.63
2023-07-24T05:14:46.943Z,7.65
2023-07-24T05:19:50.331Z,8.98
2023-07-24T05:24:53.822Z,8.27
2023-07-24T05:29:58.624Z,8.43
2023-07-24T05:35:02.284Z,8.00
2023-07-24T05:40:07.064Z,8.63
2023-07-24T05:45:13.152Z,9.65
2023-07-24T05:50:16.618Z,9.95
2023-07-24T05:55:20.112Z,12.32
2023-07-24T06:00:25.031Z,9.50
2023-07-24T06:05:28.504Z,10.00
2023-07-24T06:10:31.934Z,8.88
2023-07-24T06:15:36.748Z,12.55
2023-07-24T06:20:40.157Z,9.75
2023-07-24T06:25:44.489Z,9.05
2023-07-24T06:30:49.221Z,7.78
2023-07-24T06:35:53.074Z,8.98
2023-07-24T06:40:56.648Z,7.35
2023-07-24T06:46:01.652Z,9.98
2023-07-24T06:51:05.312Z,8.65
2023-07-24T06:56:08.779Z,7.35
2023-07-24T07:01:13.663Z,8.75
2023-07-24T07:11:23.664Z,8.85
2023-07-24T07:16:28.660Z,8.57
2023-07-24T07:21:32.344Z,9.25
2023-07-24T07:26:35.834Z,10.35
2023-07-24T07:31:40.741Z,8.55
2023-07-24T07:36:44.307Z,8.73
2023-07-24T07:41:47.870Z,9.07
2023-07-24T07:46:52.760Z,10.30
2023-07-24T07:51:56.288Z,9.18
2023-07-24T07:56:59.748Z,9.18
2023-07-24T08:02:04.930Z,10.65
2023-07-24T08:07:08.540Z,9.70
2023-07-24T08:12:12.075Z,8.38
2023-07-24T08:17:17.183Z,9.68
2023-07-24T08:22:23.910Z,11.68
2023-07-24T08:27:27.374Z,9.65
2023-07-24T08:32:32.235Z,9.60
2023-07-24T08:37:35.656Z,9.82
2023-07-24T08:42:40.954Z,8.13
2023-07-24T08:47:46.662Z,8.25
2023-07-24T08:52:50.172Z,9.93
2023-07-24T08:57:53.957Z,11.68
2023-07-24T09:02:59.155Z,10.45
2023-07-24T09:08:02.860Z,10.52
2023-07-24T09:13:06.257Z,9.90
2023-07-24T09:18:11.572Z,12.18
2023-07-24T09:23:19.807Z,10.20
2023-07-24T09:28:27.973Z,9.45
2023-07-24T09:33:41.062Z,9.38
2023-07-24T09:38:47.057Z,8.73
2023-07-24T09:43:50.408Z,7.43
2023-07-24T09:54:08.941Z,6.63
2023-07-24T09:59:13.713Z,8.50
2023-07-24T10:04:18.896Z,7.78
2023-07-24T10:09:26.273Z,6.85
2023-07-24T10:14:32.862Z,7.20
2023-07-24T10:19:43.027Z,6.55
2023-07-24T10:30:00.569Z,7.00
2023-07-24T10:35:10.826Z,6.18
2023-07-24T10:40:22.766Z,5.68
2023-07-24T10:45:26.194Z,5.45
2023-07-24T10:50:40.748Z,5.60
2023-07-24T10:55:44.555Z,6.03
2023-07-24T11:00:48.685Z,5.63
2023-07-24T11:05:54.187Z,5.10
2023-07-24T11:10:59.228Z,6.05
2023-07-24T11:16:07.013Z,6.45
2023-07-24T11:21:14.557Z,6.55
2023-07-24T11:26:20.877Z,6.20
2023-07-24T11:31:24.454Z,6.80
2023-07-24T11:36:29.630Z,6.28
2023-07-24T11:41:33.665Z,8.68
2023-07-24T11:46:37.520Z,6.90
2023-07-24T11:51:42.504Z,6.97
2023-07-24T11:56:46.045Z,4.88
2023-07-24T12:01:50.208Z,7.30
2023-07-24T12:06:55.073Z,8.75
2023-07-24T12:12:01.083Z,7.45
2023-07-24T12:17:11.251Z,5.90
2023-07-24T12:27:22.176Z,8.10
2023-07-24T12:32:30.541Z,6.30
2023-07-24T12:37:36.007Z,5.28
2023-07-24T12:42:42.431Z,6.60
2023-07-24T12:47:47.584Z,6.45
2023-07-24T12:52:54.077Z,6.32
2023-07-24T12:57:58.302Z,6.28
2023-07-24T13:03:01.920Z,6.75
2023-07-24T13:08:06.930Z,6.68
2023-07-24T13:13:11.124Z,5.78
2023-07-24T13:18:27.780Z,4.93
2023-07-24T13:23:34.010Z,5.85
2023-07-24T13:28:37.484Z,6.13
2023-07-24T13:33:40.996Z,4.55
2023-07-24T13:38:45.917Z,4.72
2023-07-24T13:43:49.541Z,5.07
2023-07-24T13:48:53.015Z,5.15
2023-07-24T13:53:57.836Z,6.88
2023-07-24T13:59:01.510Z,5.38
2023-07-24T14:04:05.200Z,7.68
2023-07-24T14:09:10.439Z,6.22
2023-07-24T14:14:14.063Z,8.07
2023-07-24T14:19:18.649Z,5.80
2023-07-24T14:24:23.531Z,8.10
2023-07-24T14:29:26.992Z,6.95
2023-07-24T14:34:30.558Z,6.18
2023-07-24T14:39:35.445Z,8.13
2023-07-24T14:44:38.943Z,5.30
2023-07-24T14:49:42.364Z,4.88
2023-07-24T14:54:47.156Z,7.70
2023-07-24T14:59:50.659Z,4.10
2023-07-24T15:04:54.314Z,5.30
2023-07-24T15:09:59.336Z,5.78
2023-07-24T15:15:02.804Z,4.90
2023-07-24T15:20:09.229Z,4.43
2023-07-24T15:25:14.054Z,4.65
2023-07-24T15:30:17.569Z,4.30
2023-07-24T15:35:21.090Z,5.60
2023-07-24T15:40:25.934Z,4.40
2023-07-24T15:45:29.452Z,4.05
2023-07-24T15:50:32.904Z,3.47
2023-07-24T15:55:37.711Z,3.92
2023-07-24T16:00:41.340Z,4.10
2023-07-24T16:05:44.869Z,4.13
2023-07-24T16:10:49.618Z,4.00
2023-07-24T16:15:53.006Z,3.80
2023-07-24T16:20:56.484Z,9.07
2023-07-24T16:26:01.363Z,6.57
2023-07-24T16:31:04.775Z,4.70
2023-07-24T16:36:08.242Z,4.80
2023-07-24T16:41:13.275Z,3.15
2023-07-24T16:51:23.189Z,4.32
2023-07-24T16:56:27.992Z,2.80
2023-07-24T17:01:34.241Z,4.18
2023-07-24T17:06:38.144Z,3.72
2023-07-24T17:11:45.205Z,4.60
2023-07-24T17:16:48.881Z,4.20
2023-07-24T17:21:52.394Z,4.72
2023-07-24T17:26:57.285Z,2.38
2023-07-24T17:32:01.506Z,2.22
2023-07-24T17:37:05.336Z,3.90
2023-07-24T17:42:10.528Z,2.97
2023-07-24T17:47:13.960Z,2.40
2023-07-24T17:52:17.585Z,2.05
2023-07-24T17:57:22.612Z,2.00
2023-07-24T18:02:26.254Z,1.85
2023-07-24T18:07:29.737Z,2.60
2023-07-24T18:12:34.613Z,2.13
2023-07-24T18:17:38.068Z,2.33
2023-07-24T18:22:43.970Z,2.25
2023-07-24T18:27:48.821Z,2.28
2023-07-24T18:32:52.351Z,2.60
2023-07-24T18:37:56.839Z,1.50
2023-07-24T18:43:01.627Z,3.17
2023-07-24T18:48:05.583Z,2.33
2023-07-24T18:53:09.144Z,2.75
2023-07-24T18:58:14.422Z,1.00
2023-07-24T19:03:18.049Z,2.55
2023-07-24T19:08:21.493Z,2.22
2023-07-24T19:13:27.758Z,2.28
2023-07-24T19:18:31.247Z,1.50
2023-07-24T19:23:34.812Z,1.40
2023-07-24T19:28:39.595Z,2.58
2023-07-24T19:33:43.054Z,2.65
2023-07-24T19:38:46.714Z,1.80
2023-07-24T19:43:51.713Z,2.70
2023-07-24T19:48:55.936Z,1.75
2023-07-24T19:53:59.363Z,3.65
2023-07-24T19:59:04.269Z,3.25
2023-07-24T20:04:07.812Z,3.00
2023-07-24T20:09:11.273Z,1.75
2023-07-24T20:14:16.041Z,1.73
2023-07-24T20:19:19.438Z,3.50
2023-07-24T20:24:22.818Z,2.08
2023-07-24T20:29:27.670Z,1.58
2023-07-24T20:34:31.077Z,2.45
2023-07-24T20:39:34.515Z,2.47
2023-07-24T20:44:39.367Z,2.72
2023-07-24T20:49:42.833Z,1.83
2023-07-24T20:54:48.763Z,2.75
2023-07-24T20:59:53.566Z,2.65
2023-07-24T21:04:57.086Z,2.00
2023-07-24T21:10:00.523Z,1.90
2023-07-24T21:15:06.171Z,2.22
2023-07-24T21:20:10.317Z,1.63
2023-07-24T21:25:13.804Z,3.92
2023-07-24T21:30:19.936Z,1.73
2023-07-24T21:35:23.430Z,2.17
2023-07-24T21:40:26.884Z,2.03
2023-07-24T21:45:31.617Z,1.95
2023-07-24T21:50:35.210Z,3.20
2023-07-24T21:55:40.359Z,2.33
2023-07-24T22:00:45.241Z,3.30
2023-07-24T22:05:48.854Z,4.32
2023-07-24T22:10:52.388Z,1.38
2023-07-24T22:15:57.213Z,1.35
2023-07-24T22:21:00.741Z,2.47
2023-07-24T22:26:04.383Z,2.63
2023-07-24T22:31:12.930Z,2.70
2023-07-24T22:36:16.500Z,4.10
2023-07-24T22:41:20.041Z,2.08
2023-07-24T22:46:24.996Z,3.60
2023-07-24T22:51:28.775Z,6.43
2023-07-24T22:56:32.364Z,4.07
2023-07-24T23:01:37.130Z,4.70
2023-07-24T23:06:40.502Z,3.13
2023-07-24T23:11:44.300Z,2.40
2023-07-24T23:16:49.074Z,3.08
2023-07-24T23:21:52.562Z,2.25
2023-07-24T23:26:56.497Z,3.58
2023-07-24T23:32:01.354Z,3.25
2023-07-24T23:37:09.473Z,3.33
2023-07-24T23:42:12.937Z,2.25
2023-07-24T23:47:17.876Z,4.10
2023-07-24T23:52:21.493Z,2.78
2023-07-24T23:57:28.804Z,5.03
